Edgar G. Obie (S71)
Chinook, MT
Field Elevation: 2416
Lat: 48°35.32N  Long: 109°15.02W
CTAF/Unicom Freq: 122.8000
   
    
Weather Advisories
2017-10-19   18:01 Z
Altimeter 29.60" Hg
Wind 220° @ 17 KT
Gusts 24 KT
Visibility 10 SM
Temperature 24° C (75° F)
Dewpoint -6° C (21° F)
Relative Humidity 13%
Density Altitude 4,400 feet
Condensation Altitude 17,400 feet
Wind and Runways
Indicated Runway = 26
Headwind = 13 kt
Crosswind = 11 kt
History
 
 
 
More Info
NOAA Forecast
 
 
About Us
Belfort Instrument
 
 
FAA Disclaimer: The data displayed is for advisory purposes only and is not to be used for flight planning or operations. For official data, please call (not available) to hear the current automated AWOS voice message.
  METAR S71 191801Z AUTO 22017G24KT 10 SM 24/M06 A2960